ADDS METAR Data INFO
IDs: Format: Raw Decoded Include TAF

Data at: 1146 UTC 23 Jun 2018

PAFA 231053Z 20004KT 10SM FEW080 FEW200 11/09 A3002 RMK AO2 SLP168 T01110094 $
PAFA 230953Z 00000KT 10SM FEW080 FEW200 13/09 A3001 RMK AO2 SLP166 T01280089 $
PAFA 230853Z COR 26003KT 10SM FEW065 FEW080 BKN200 13/09 A2999 RMK AO2 SLP159 T01330094 402000128 51013 $
PAFA 230753Z 23003KT 10SM FEW065 FEW080 BKN200 15/09 A2998 RMK AO2 SLP155 SH DSNT S SW T01500089 $
PAFA 230653Z 24005KT 10SM FEW065 FEW080 BKN200 17/08 A2996 RMK AO2 SLP151 SH DSNT S T01670083 $
PAFA 230553Z 26006KT 10SM SCT065 SCT080 BKN200 17/08 A2995 RMK AO2 SLP146 T01720083 10200 20167 53008
PAFA 230453Z 26009KT 10SM FEW055 SCT085 SCT200 18/08 A2994 RMK AO2 SLP143 T01780078
PAFA 230353Z 26008KT 10SM FEW045 SCT060 BKN085 19/08 A2993 RMK AO2 SLP141 T01890078
PAFA 230253Z 26013KT 10SM FEW040 SCT060 BKN085 19/09 A2993 RMK AO2 SLP137 SH DSNT N T01940089 53009
PAFA 230153Z 27014G22KT 10SM FEW037 SCT060 BKN085 19/08 A2991 RMK AO2 PK WND 28026/0116 SLP133 SH DSNT SE W T01890083
PAFA 230053Z 28014G18KT 10SM SCT045 BKN060 BKN080 20/11 A2991 RMK AO2 SLP130 T02000106
PAFA 222353Z 25012G17KT 10SM FEW038 BKN050 BKN080 18/09 A2990 RMK AO2 SLP129 SH DSNT S NW 60001 T01830089 10194 20128 53002
PAFA 222253Z 25011KT 10SM FEW038 BKN050 BKN080 18/10 A2990 RMK AO2 SLP128 SH DSNT S NW T01830100
PAFA 222153Z 28005G15KT 10SM FEW035 BKN044 BKN110 18/11 A2990 RMK AO2 SLP127 SH DSNT S T01830106
PAFA 222053Z 26008KT 10SM FEW028 BKN055 BKN100 17/11 A2990 RMK AO2 SLP127 60001 T01670111 51010
PAFA 221953Z 25009KT 10SM FEW016 SCT031 BKN043 BKN130 14/11 A2989 RMK AO2 RAE08 SLP125 SH DSNT NW-NE P0000 T01440111
PAFA 221853Z 23008KT 10SM -RA FEW012 BKN034 OVC050 13/12 A2988 RMK AO2 RAB16 SLP122 VIS LWR NW-NE P0001 T01330117
PAFA 221753Z 24009G17KT 10SM FEW030 BKN060 OVC150 14/11 A2987 RMK AO2 RAB12E18 SLP116 SH DSNT NW-N SE S P0000 60000 T01390111 10156 20139 51015
PAFA 221653Z 24010KT 10SM FEW027 FEW045 BKN070 BKN150 14/11 A2985 RMK AO2 RAE26 SLP111 P0000 T01390111
PAFA 221553Z 24006KT 10SM -RA FEW050 BKN065 BKN140 14/11 A2984 RMK AO2 SLP106 P0000 T01440111
PAFA 221453Z 23004KT 10SM -RA FEW050 BKN070 BKN120 15/12 A2982 RMK AO2 RAB51 SLP100 P0000 60000 T01500117 51018
PAFA 221353Z 00000KT 10SM FEW050 BKN070 BKN120 15/12 A2981 RMK AO2 SLP096 T01500117
PAFA 221253Z 20005KT 10SM FEW050 BKN070 BKN100 15/12 A2979 RMK AO2 SLP090 T01500117
PAFA 221153Z 13004KT 10SM FEW050 BKN070 OVC100 15/12 A2977 RMK AO2 RAE49 SLP082 P0000 60000 T01500117 10217 20150 53019
PAFA 221053Z VRB04KT 10SM -RA FEW050 BKN070 OVC100 17/11 A2974 RMK AO2 RAB00 SLP073 P0000 T01670111
PAFA 220953Z 19010KT 10SM FEW050 BKN070 OVC100 17/12 A2972 RMK AO2 RAE03 SLP067 P0000 T01670117
PAFA 220853Z 21007KT 10SM -RA FEW050 BKN070 BKN100 18/11 A2971 RMK AO2 RAB38 SLP062 P0000 60000 T01780111 403000172 53010
PAFA 220753Z 23009G16KT 10SM SCT065 BKN100 BKN160 19/10 A2969 RMK AO2 RAE25 SLP057 P0000 T01890100
PAFA 220653Z 22005KT 10SM -RA SCT065CB BKN080 BKN100 19/11 A2968 RMK AO2 RAB53 SLP054 CB S-OHD-W MOV NW P0000 T01940106
PAFA 220553Z 24007KT 10SM SCT065CB BKN090 BKN110 22/09 A2968 RMK AO2 RAE29 SLP052 PRSNT WX VCSH SE-SW CB SE-SW MOV NW P0000 60000 T02170089 10300 20217 53027
PAFA 220453Z 23011G24KT 10SM -RA SCT070 BKN100 BKN200 24/08 A2964 RMK AO2 RAB43 SLP040 P0000 T02390083
PAFA 220353Z 24010KT 10SM FEW065 SCT080 BKN120 BKN200 25/08 A2961 RMK AO2 SLP027 SH DSNT N-E SE T02500083
PAFA 220253Z 26009KT 10SM FEW065 SCT080 BKN120 BKN200 27/09 A2960 RMK AO2 SLP024 SH DSNT NE SE T02670094 55002
PAFA 220153Z 24008KT 200V260 10SM FEW075 BKN120 BKN200 28/07 A2959 RMK AO2 SLP021 T02780072
PAFA 220053Z VRB03KT 10SM FEW075 BKN120 BKN200 29/07 A2959 RMK AO2 SLP022 T02890072
PAFA 212353Z 00000KT 10SM FEW075 SCT120 BKN200 29/07 A2960 RMK AO2 SLP026 T02890067 10289 20222 56014